sensor_id;sensor_type;location;lat;lon;timestamp;P1;durP1;ratioP1;P2;durP2;ratioP2
25327;SDS011;13279;51.300;12.394;2023-11-21T00:01:17;3.80;;;1.90;;
25327;SDS011;13279;51.300;12.394;2023-11-21T00:03:44;4.30;;;2.03;;
25327;SDS011;13279;51.300;12.394;2023-11-21T00:06:12;2.57;;;1.97;;
25327;SDS011;13279;51.300;12.394;2023-11-21T00:08:40;2.10;;;1.80;;
25327;SDS011;13279;51.300;12.394;2023-11-21T00:11:09;3.77;;;1.73;;
25327;SDS011;13279;51.300;12.394;2023-11-21T00:13:36;5.03;;;1.60;;
25327;SDS011;13279;51.300;12.394;2023-11-21T00:16:04;2.37;;;2.17;;
25327;SDS011;13279;51.300;12.394;2023-11-21T00:18:32;8.47;;;2.10;;
25327;SDS011;13279;51.300;12.394;2023-11-21T00:21:00;3.20;;;2.23;;
25327;SDS011;13279;51.300;12.394;2023-11-21T00:23:28;4.73;;;2.00;;
25327;SDS011;13279;51.300;12.394;2023-11-21T00:25:56;3.27;;;2.10;;
25327;SDS011;13279;51.300;12.394;2023-11-21T00:28:25;5.07;;;2.23;;
25327;SDS011;13279;51.300;12.394;2023-11-21T00:30:53;2.73;;;1.90;;
25327;SDS011;13279;51.300;12.394;2023-11-21T00:33:20;4.50;;;1.83;;
25327;SDS011;13279;51.300;12.394;2023-11-21T00:35:48;3.30;;;2.37;;
25327;SDS011;13279;51.300;12.394;2023-11-21T00:38:15;4.57;;;2.27;;
25327;SDS011;13279;51.300;12.394;2023-11-21T00:40:46;2.77;;;2.00;;
25327;SDS011;13279;51.300;12.394;2023-11-21T00:43:13;2.33;;;1.63;;
25327;SDS011;13279;51.300;12.394;2023-11-21T00:45:42;3.73;;;1.93;;
25327;SDS011;13279;51.300;12.394;2023-11-21T00:48:09;3.07;;;1.57;;
25327;SDS011;13279;51.300;12.394;2023-11-21T00:50:39;2.60;;;1.80;;
25327;SDS011;13279;51.300;12.394;2023-11-21T00:53:06;5.00;;;1.80;;
25327;SDS011;13279;51.300;12.394;2023-11-21T00:55:34;6.97;;;1.60;;
25327;SDS011;13279;51.300;12.394;2023-11-21T00:58:01;2.23;;;2.00;;
25327;SDS011;13279;51.300;12.394;2023-11-21T01:00:30;7.77;;;2.07;;
25327;SDS011;13279;51.300;12.394;2023-11-21T01:02:59;4.07;;;1.77;;
25327;SDS011;13279;51.300;12.394;2023-11-21T01:05:27;8.67;;;1.87;;
25327;SDS011;13279;51.300;12.394;2023-11-21T01:07:54;2.47;;;2.07;;
25327;SDS011;13279;51.300;12.394;2023-11-21T01:10:22;6.17;;;1.50;;
25327;SDS011;13279;51.300;12.394;2023-11-21T01:12:50;4.23;;;2.07;;
25327;SDS011;13279;51.300;12.394;2023-11-21T01:15:17;3.83;;;1.90;;
25327;SDS011;13279;51.300;12.394;2023-11-21T01:17:45;4.43;;;1.97;;
25327;SDS011;13279;51.300;12.394;2023-11-21T01:20:14;2.90;;;1.70;;
25327;SDS011;13279;51.300;12.394;2023-11-21T01:22:42;1.90;;;1.80;;
25327;SDS011;13279;51.300;12.394;2023-11-21T01:25:10;3.30;;;1.70;;
25327;SDS011;13279;51.300;12.394;2023-11-21T01:27:39;2.70;;;1.60;;
25327;SDS011;13279;51.300;12.394;2023-11-21T01:30:07;4.13;;;1.77;;
25327;SDS011;13279;51.300;12.394;2023-11-21T01:32:35;2.13;;;1.87;;
25327;SDS011;13279;51.300;12.394;2023-11-21T01:35:03;5.37;;;1.70;;
25327;SDS011;13279;51.300;12.394;2023-11-21T01:37:33;9.13;;;2.03;;
25327;SDS011;13279;51.300;12.394;2023-11-21T01:40:00;2.80;;;1.70;;
25327;SDS011;13279;51.300;12.394;2023-11-21T01:42:31;4.83;;;1.67;;
25327;SDS011;13279;51.300;12.394;2023-11-21T01:44:59;9.00;;;1.90;;
25327;SDS011;13279;51.300;12.394;2023-11-21T01:47:27;4.83;;;1.67;;
25327;SDS011;13279;51.300;12.394;2023-11-21T01:49:55;2.27;;;1.67;;
25327;SDS011;13279;51.300;12.394;2023-11-21T01:52:23;5.27;;;1.60;;
25327;SDS011;13279;51.300;12.394;2023-11-21T01:54:52;4.20;;;1.60;;
25327;SDS011;13279;51.300;12.394;2023-11-21T01:57:20;5.63;;;1.90;;
25327;SDS011;13279;51.300;12.394;2023-11-21T01:59:48;5.50;;;1.60;;
25327;SDS011;13279;51.300;12.394;2023-11-21T02:02:17;5.40;;;1.70;;
25327;SDS011;13279;51.300;12.394;2023-11-21T02:04:44;1.57;;;1.33;;
25327;SDS011;13279;51.300;12.394;2023-11-21T02:07:12;5.93;;;1.67;;
25327;SDS011;13279;51.300;12.394;2023-11-21T02:09:39;6.37;;;1.90;;
25327;SDS011;13279;51.300;12.394;2023-11-21T02:12:10;2.23;;;1.30;;
25327;SDS011;13279;51.300;12.394;2023-11-21T02:14:38;6.13;;;1.80;;
25327;SDS011;13279;51.300;12.394;2023-11-21T02:17:06;5.73;;;1.80;;
25327;SDS011;13279;51.300;12.394;2023-11-21T02:19:33;4.40;;;1.80;;
25327;SDS011;13279;51.300;12.394;2023-11-21T02:22:01;4.50;;;2.40;;
25327;SDS011;13279;51.300;12.394;2023-11-21T02:24:33;5.77;;;2.47;;
25327;SDS011;13279;51.300;12.394;2023-11-21T02:27:00;2.60;;;2.03;;
25327;SDS011;13279;51.300;12.394;2023-11-21T02:29:28;2.53;;;2.07;;
25327;SDS011;13279;51.300;12.394;2023-11-21T02:31:55;5.20;;;2.50;;
25327;SDS011;13279;51.300;12.394;2023-11-21T02:34:23;6.60;;;2.57;;
25327;SDS011;13279;51.300;12.394;2023-11-21T02:36:50;2.90;;;2.27;;
25327;SDS011;13279;51.300;12.394;2023-11-21T02:39:19;6.17;;;2.43;;
25327;SDS011;13279;51.300;12.394;2023-11-21T02:41:48;4.67;;;2.67;;
25327;SDS011;13279;51.300;12.394;2023-11-21T02:44:17;6.07;;;2.73;;
25327;SDS011;13279;51.300;12.394;2023-11-21T02:46:44;4.67;;;2.33;;
25327;SDS011;13279;51.300;12.394;2023-11-21T02:49:12;13.63;;;3.20;;
25327;SDS011;13279;51.300;12.394;2023-11-21T02:51:39;5.07;;;2.50;;
25327;SDS011;13279;51.300;12.394;2023-11-21T02:54:07;5.73;;;2.77;;
25327;SDS011;13279;51.300;12.394;2023-11-21T02:56:35;10.23;;;2.77;;
25327;SDS011;13279;51.300;12.394;2023-11-21T02:59:04;6.73;;;3.03;;
25327;SDS011;13279;51.300;12.394;2023-11-21T03:01:31;7.70;;;3.23;;
25327;SDS011;13279;51.300;12.394;2023-11-21T03:03:59;13.63;;;2.97;;
25327;SDS011;13279;51.300;12.394;2023-11-21T03:06:26;6.90;;;2.90;;
25327;SDS011;13279;51.300;12.394;2023-11-21T03:08:54;9.47;;;3.30;;
25327;SDS011;13279;51.300;12.394;2023-11-21T03:11:21;10.23;;;3.47;;
25327;SDS011;13279;51.300;12.394;2023-11-21T03:13:49;6.43;;;3.10;;
25327;SDS011;13279;51.300;12.394;2023-11-21T03:16:18;4.70;;;3.43;;
25327;SDS011;13279;51.300;12.394;2023-11-21T03:18:46;8.47;;;3.30;;
25327;SDS011;13279;51.300;12.394;2023-11-21T03:21:13;5.47;;;3.30;;
25327;SDS011;13279;51.300;12.394;2023-11-21T03:23:41;6.73;;;3.87;;
25327;SDS011;13279;51.300;12.394;2023-11-21T03:26:11;5.30;;;3.20;;
25327;SDS011;13279;51.300;12.394;2023-11-21T03:28:39;7.47;;;3.50;;
25327;SDS011;13279;51.300;12.394;2023-11-21T03:31:06;7.67;;;3.93;;
25327;SDS011;13279;51.300;12.394;2023-11-21T03:33:36;7.10;;;3.33;;
25327;SDS011;13279;51.300;12.394;2023-11-21T03:36:03;9.93;;;3.93;;
25327;SDS011;13279;51.300;12.394;2023-11-21T03:38:31;4.87;;;3.37;;
25327;SDS011;13279;51.300;12.394;2023-11-21T03:40:58;10.70;;;3.37;;
25327;SDS011;13279;51.300;12.394;2023-11-21T03:43:27;9.33;;;3.80;;
25327;SDS011;13279;51.300;12.394;2023-11-21T03:45:54;7.07;;;3.17;;
25327;SDS011;13279;51.300;12.394;2023-11-21T03:48:22;7.73;;;3.63;;
25327;SDS011;13279;51.300;12.394;2023-11-21T03:50:51;5.60;;;3.63;;
25327;SDS011;13279;51.300;12.394;2023-11-21T03:53:18;12.67;;;3.77;;
25327;SDS011;13279;51.300;12.394;2023-11-21T03:55:46;4.67;;;3.30;;
25327;SDS011;13279;51.300;12.394;2023-11-21T03:58:13;6.80;;;3.67;;
25327;SDS011;13279;51.300;12.394;2023-11-21T04:00:40;5.80;;;3.30;;
25327;SDS011;13279;51.300;12.394;2023-11-21T04:03:08;12.73;;;3.23;;
25327;SDS011;13279;51.300;12.394;2023-11-21T04:05:35;8.33;;;4.30;;
25327;SDS011;13279;51.300;12.394;2023-11-21T04:08:04;7.83;;;3.97;;
25327;SDS011;13279;51.300;12.394;2023-11-21T04:10:32;6.40;;;3.60;;
25327;SDS011;13279;51.300;12.394;2023-11-21T04:12:59;15.47;;;3.90;;
25327;SDS011;13279;51.300;12.394;2023-11-21T04:15:27;11.90;;;4.27;;
25327;SDS011;13279;51.300;12.394;2023-11-21T04:17:54;8.50;;;3.93;;
25327;SDS011;13279;51.300;12.394;2023-11-21T04:20:22;8.57;;;4.43;;
25327;SDS011;13279;51.300;12.394;2023-11-21T04:22:49;10.97;;;3.87;;
25327;SDS011;13279;51.300;12.394;2023-11-21T04:25:18;8.47;;;3.70;;
25327;SDS011;13279;51.300;12.394;2023-11-21T04:27:46;8.70;;;3.67;;
25327;SDS011;13279;51.300;12.394;2023-11-21T04:30:13;6.63;;;3.40;;
25327;SDS011;13279;51.300;12.394;2023-11-21T04:32:41;8.80;;;3.63;;
25327;SDS011;13279;51.300;12.394;2023-11-21T04:35:08;6.50;;;2.93;;
25327;SDS011;13279;51.300;12.394;2023-11-21T04:37:36;9.47;;;4.17;;
25327;SDS011;13279;51.300;12.394;2023-11-21T04:40:04;10.63;;;3.53;;
25327;SDS011;13279;51.300;12.394;2023-11-21T04:42:35;9.43;;;4.57;;
25327;SDS011;13279;51.300;12.394;2023-11-21T04:45:03;11.50;;;3.83;;
25327;SDS011;13279;51.300;12.394;2023-11-21T04:47:34;8.43;;;4.03;;
25327;SDS011;13279;51.300;12.394;2023-11-21T04:50:01;9.73;;;3.90;;
25327;SDS011;13279;51.300;12.394;2023-11-21T04:52:30;7.47;;;3.50;;
25327;SDS011;13279;51.300;12.394;2023-11-21T04:54:58;6.37;;;3.80;;
25327;SDS011;13279;51.300;12.394;2023-11-21T04:57:28;12.37;;;3.90;;
25327;SDS011;13279;51.300;12.394;2023-11-21T04:59:57;10.50;;;4.07;;
25327;SDS011;13279;51.300;12.394;2023-11-21T05:02:25;14.57;;;4.10;;
25327;SDS011;13279;51.300;12.394;2023-11-21T05:04:52;9.20;;;3.93;;
25327;SDS011;13279;51.300;12.394;2023-11-21T05:07:22;7.17;;;3.47;;
25327;SDS011;13279;51.300;12.394;2023-11-21T05:09:49;7.90;;;3.63;;
25327;SDS011;13279;51.300;12.394;2023-11-21T05:12:16;9.13;;;4.23;;
25327;SDS011;13279;51.300;12.394;2023-11-21T05:14:43;9.13;;;4.43;;
25327;SDS011;13279;51.300;12.394;2023-11-21T05:17:13;9.40;;;4.00;;
25327;SDS011;13279;51.300;12.394;2023-11-21T05:19:41;10.60;;;3.70;;
25327;SDS011;13279;51.300;12.394;2023-11-21T05:22:08;7.60;;;3.37;;
25327;SDS011;13279;51.300;12.394;2023-11-21T05:24:37;10.73;;;4.17;;
25327;SDS011;13279;51.300;12.394;2023-11-21T05:27:05;13.70;;;3.83;;
25327;SDS011;13279;51.300;12.394;2023-11-21T05:29:34;9.33;;;4.57;;
25327;SDS011;13279;51.300;12.394;2023-11-21T05:32:03;13.50;;;5.30;;
25327;SDS011;13279;51.300;12.394;2023-11-21T05:34:32;11.80;;;4.53;;
25327;SDS011;13279;51.300;12.394;2023-11-21T05:37:00;8.30;;;4.23;;
25327;SDS011;13279;51.300;12.394;2023-11-21T05:39:27;11.13;;;4.03;;
25327;SDS011;13279;51.300;12.394;2023-11-21T05:41:55;11.10;;;4.47;;
25327;SDS011;13279;51.300;12.394;2023-11-21T05:44:23;16.97;;;4.20;;
25327;SDS011;13279;51.300;12.394;2023-11-21T05:46:50;8.57;;;4.33;;
25327;SDS011;13279;51.300;12.394;2023-11-21T05:49:18;9.60;;;4.60;;
25327;SDS011;13279;51.300;12.394;2023-11-21T05:51:49;12.03;;;4.23;;
25327;SDS011;13279;51.300;12.394;2023-11-21T05:54:19;8.47;;;4.60;;
25327;SDS011;13279;51.300;12.394;2023-11-21T05:56:47;15.00;;;5.23;;
25327;SDS011;13279;51.300;12.394;2023-11-21T05:59:15;14.80;;;5.30;;
25327;SDS011;13279;51.300;12.394;2023-11-21T06:01:42;15.67;;;5.27;;
25327;SDS011;13279;51.300;12.394;2023-11-21T06:04:11;9.37;;;4.53;;
25327;SDS011;13279;51.300;12.394;2023-11-21T06:06:39;11.97;;;5.30;;
25327;SDS011;13279;51.300;12.394;2023-11-21T06:09:08;10.50;;;5.40;;
25327;SDS011;13279;51.300;12.394;2023-11-21T06:11:37;9.87;;;4.60;;
25327;SDS011;13279;51.300;12.394;2023-11-21T06:14:04;13.27;;;5.03;;
25327;SDS011;13279;51.300;12.394;2023-11-21T06:16:33;10.93;;;5.07;;
25327;SDS011;13279;51.300;12.394;2023-11-21T06:19:01;14.17;;;5.67;;
25327;SDS011;13279;51.300;12.394;2023-11-21T06:21:28;12.37;;;5.27;;
25327;SDS011;13279;51.300;12.394;2023-11-21T06:23:56;14.10;;;5.80;;
25327;SDS011;13279;51.300;12.394;2023-11-21T06:26:25;17.37;;;6.33;;
25327;SDS011;13279;51.300;12.394;2023-11-21T06:28:53;11.60;;;5.33;;
25327;SDS011;13279;51.300;12.394;2023-11-21T06:31:23;12.97;;;6.53;;
25327;SDS011;13279;51.300;12.394;2023-11-21T06:33:50;12.40;;;7.47;;
25327;SDS011;13279;51.300;12.394;2023-11-21T06:36:18;16.70;;;6.37;;
25327;SDS011;13279;51.300;12.394;2023-11-21T06:38:46;11.93;;;6.17;;
25327;SDS011;13279;51.300;12.394;2023-11-21T06:41:13;24.77;;;7.53;;
25327;SDS011;13279;51.300;12.394;2023-11-21T06:43:42;13.13;;;7.77;;
25327;SDS011;13279;51.300;12.394;2023-11-21T06:46:12;20.33;;;8.20;;
25327;SDS011;13279;51.300;12.394;2023-11-21T06:48:42;19.40;;;6.80;;
25327;SDS011;13279;51.300;12.394;2023-11-21T06:51:11;17.67;;;6.83;;
25327;SDS011;13279;51.300;12.394;2023-11-21T06:53:38;22.57;;;8.43;;
25327;SDS011;13279;51.300;12.394;2023-11-21T06:56:14;20.23;;;8.40;;
25327;SDS011;13279;51.300;12.394;2023-11-21T06:58:44;23.77;;;8.37;;
25327;SDS011;13279;51.300;12.394;2023-11-21T07:01:12;27.90;;;8.47;;
25327;SDS011;13279;51.300;12.394;2023-11-21T07:03:40;17.47;;;8.03;;
25327;SDS011;13279;51.300;12.394;2023-11-21T07:06:08;21.73;;;7.50;;
25327;SDS011;13279;51.300;12.394;2023-11-21T07:08:35;28.07;;;9.07;;
25327;SDS011;13279;51.300;12.394;2023-11-21T07:11:02;18.90;;;8.00;;
25327;SDS011;13279;51.300;12.394;2023-11-21T07:13:30;20.50;;;8.07;;
25327;SDS011;13279;51.300;12.394;2023-11-21T07:15:59;36.97;;;8.07;;
25327;SDS011;13279;51.300;12.394;2023-11-21T07:18:27;19.03;;;8.17;;
25327;SDS011;13279;51.300;12.394;2023-11-21T07:20:54;20.80;;;8.37;;
25327;SDS011;13279;51.300;12.394;2023-11-21T07:23:22;23.47;;;7.83;;
25327;SDS011;13279;51.300;12.394;2023-11-21T07:25:49;25.17;;;8.33;;
25327;SDS011;13279;51.300;12.394;2023-11-21T07:28:16;24.13;;;7.97;;
25327;SDS011;13279;51.300;12.394;2023-11-21T07:30:44;21.37;;;9.27;;
25327;SDS011;13279;51.300;12.394;2023-11-21T07:33:13;20.37;;;8.93;;
25327;SDS011;13279;51.300;12.394;2023-11-21T07:35:40;20.23;;;9.50;;
25327;SDS011;13279;51.300;12.394;2023-11-21T07:38:08;23.57;;;8.53;;
25327;SDS011;13279;51.300;12.394;2023-11-21T07:40:35;19.27;;;9.43;;
25327;SDS011;13279;51.300;12.394;2023-11-21T07:43:03;30.10;;;11.63;;
25327;SDS011;13279;51.300;12.394;2023-11-21T07:45:31;30.10;;;11.47;;
25327;SDS011;13279;51.300;12.394;2023-11-21T07:47:58;30.67;;;12.10;;
25327;SDS011;13279;51.300;12.394;2023-11-21T07:50:30;27.97;;;12.10;;
25327;SDS011;13279;51.300;12.394;2023-11-21T07:52:57;29.27;;;12.97;;
25327;SDS011;13279;51.300;12.394;2023-11-21T07:55:25;37.93;;;13.97;;
25327;SDS011;13279;51.300;12.394;2023-11-21T07:57:52;47.20;;;16.73;;
25327;SDS011;13279;51.300;12.394;2023-11-21T08:00:20;39.30;;;15.27;;
25327;SDS011;13279;51.300;12.394;2023-11-21T08:02:49;42.70;;;15.00;;
25327;SDS011;13279;51.300;12.394;2023-11-21T08:05:16;45.83;;;16.20;;
25327;SDS011;13279;51.300;12.394;2023-11-21T08:07:45;40.13;;;15.30;;
25327;SDS011;13279;51.300;12.394;2023-11-21T08:10:13;40.90;;;15.33;;
25327;SDS011;13279;51.300;12.394;2023-11-21T08:12:41;32.67;;;14.70;;
25327;SDS011;13279;51.300;12.394;2023-11-21T08:15:09;31.17;;;14.43;;
25327;SDS011;13279;51.300;12.394;2023-11-21T08:17:36;36.10;;;14.37;;
25327;SDS011;13279;51.300;12.394;2023-11-21T08:20:04;35.77;;;14.33;;
25327;SDS011;13279;51.300;12.394;2023-11-21T08:22:33;31.50;;;13.63;;
25327;SDS011;13279;51.300;12.394;2023-11-21T08:25:03;27.87;;;13.03;;
25327;SDS011;13279;51.300;12.394;2023-11-21T08:27:31;27.13;;;13.33;;
25327;SDS011;13279;51.300;12.394;2023-11-21T08:29:58;36.57;;;14.27;;
25327;SDS011;13279;51.300;12.394;2023-11-21T08:32:25;29.77;;;12.80;;
25327;SDS011;13279;51.300;12.394;2023-11-21T08:34:53;28.17;;;13.30;;
25327;SDS011;13279;51.300;12.394;2023-11-21T08:37:20;38.63;;;11.50;;
25327;SDS011;13279;51.300;12.394;2023-11-21T08:39:49;31.50;;;12.13;;
25327;SDS011;13279;51.300;12.394;2023-11-21T08:42:19;23.37;;;11.20;;
25327;SDS011;13279;51.300;12.394;2023-11-21T08:44:48;30.70;;;11.73;;
25327;SDS011;13279;51.300;12.394;2023-11-21T08:47:17;30.43;;;11.33;;
25327;SDS011;13279;51.300;12.394;2023-11-21T08:49:45;45.97;;;11.63;;
25327;SDS011;13279;51.300;12.394;2023-11-21T08:52:12;20.97;;;10.47;;
25327;SDS011;13279;51.300;12.394;2023-11-21T08:54:40;26.80;;;10.03;;
25327;SDS011;13279;51.300;12.394;2023-11-21T08:57:08;26.50;;;10.47;;
25327;SDS011;13279;51.300;12.394;2023-11-21T08:59:37;22.80;;;9.13;;
25327;SDS011;13279;51.300;12.394;2023-11-21T09:02:05;19.97;;;9.50;;
25327;SDS011;13279;51.300;12.394;2023-11-21T09:04:33;19.57;;;9.00;;
25327;SDS011;13279;51.300;12.394;2023-11-21T09:07:01;17.53;;;8.33;;
25327;SDS011;13279;51.300;12.394;2023-11-21T09:09:29;17.47;;;10.20;;
25327;SDS011;13279;51.300;12.394;2023-11-21T09:11:56;23.47;;;10.57;;
25327;SDS011;13279;51.300;12.394;2023-11-21T09:14:26;19.87;;;9.37;;
25327;SDS011;13279;51.300;12.394;2023-11-21T09:16:55;21.63;;;10.10;;
25327;SDS011;13279;51.300;12.394;2023-11-21T09:19:22;21.70;;;10.10;;
25327;SDS011;13279;51.300;12.394;2023-11-21T09:21:50;23.10;;;10.93;;
25327;SDS011;13279;51.300;12.394;2023-11-21T09:24:17;22.10;;;9.73;;
25327;SDS011;13279;51.300;12.394;2023-11-21T09:26:44;24.00;;;9.27;;
25327;SDS011;13279;51.300;12.394;2023-11-21T09:29:12;19.87;;;9.37;;
25327;SDS011;13279;51.300;12.394;2023-11-21T09:31:40;18.07;;;9.60;;
25327;SDS011;13279;51.300;12.394;2023-11-21T09:34:11;16.27;;;8.90;;
25327;SDS011;13279;51.300;12.394;2023-11-21T09:36:38;19.03;;;8.93;;
25327;SDS011;13279;51.300;12.394;2023-11-21T09:39:06;17.27;;;9.10;;
25327;SDS011;13279;51.300;12.394;2023-11-21T09:41:41;16.20;;;9.10;;
25327;SDS011;13279;51.300;12.394;2023-11-21T09:44:13;17.27;;;8.80;;
25327;SDS011;13279;51.300;12.394;2023-11-21T09:46:47;14.27;;;7.67;;
25327;SDS011;13279;51.300;12.394;2023-11-21T09:49:16;15.20;;;7.83;;
25327;SDS011;13279;51.300;12.394;2023-11-21T09:51:50;12.13;;;7.40;;
25327;SDS011;13279;51.300;12.394;2023-11-21T09:54:22;14.13;;;8.40;;
25327;SDS011;13279;51.300;12.394;2023-11-21T09:56:49;14.23;;;7.73;;
25327;SDS011;13279;51.300;12.394;2023-11-21T09:59:17;16.83;;;7.63;;
25327;SDS011;13279;51.300;12.394;2023-11-21T10:01:46;11.67;;;7.57;;
25327;SDS011;13279;51.300;12.394;2023-11-21T10:04:17;13.13;;;7.93;;
25327;SDS011;13279;51.300;12.394;2023-11-21T10:06:46;14.27;;;8.00;;
25327;SDS011;13279;51.300;12.394;2023-11-21T10:09:15;14.97;;;8.37;;
25327;SDS011;13279;51.300;12.394;2023-11-21T10:11:46;15.13;;;7.83;;
25327;SDS011;13279;51.300;12.394;2023-11-21T10:14:16;15.90;;;8.60;;
25327;SDS011;13279;51.300;12.394;2023-11-21T10:16:51;14.57;;;8.30;;
25327;SDS011;13279;51.300;12.394;2023-11-21T10:19:21;12.60;;;8.27;;
25327;SDS011;13279;51.300;12.394;2023-11-21T10:21:49;18.60;;;8.73;;
25327;SDS011;13279;51.300;12.394;2023-11-21T10:24:17;13.00;;;8.53;;
25327;SDS011;13279;51.300;12.394;2023-11-21T10:26:45;12.80;;;7.07;;
25327;SDS011;13279;51.300;12.394;2023-11-21T10:29:16;12.43;;;6.93;;
25327;SDS011;13279;51.300;12.394;2023-11-21T10:31:44;9.47;;;6.40;;
25327;SDS011;13279;51.300;12.394;2023-11-21T10:34:12;8.50;;;6.03;;
25327;SDS011;13279;51.300;12.394;2023-11-21T10:36:41;12.00;;;5.67;;
25327;SDS011;13279;51.300;12.394;2023-11-21T10:39:13;9.63;;;5.57;;
25327;SDS011;13279;51.300;12.394;2023-11-21T10:41:45;15.33;;;6.57;;
25327;SDS011;13279;51.300;12.394;2023-11-21T10:44:13;11.23;;;6.50;;
25327;SDS011;13279;51.300;12.394;2023-11-21T10:46:46;14.50;;;6.83;;
25327;SDS011;13279;51.300;12.394;2023-11-21T10:49:16;11.47;;;5.70;;
25327;SDS011;13279;51.300;12.394;2023-11-21T10:51:45;9.77;;;6.47;;
25327;SDS011;13279;51.300;12.394;2023-11-21T10:54:16;11.17;;;6.10;;
25327;SDS011;13279;51.300;12.394;2023-11-21T10:56:45;10.47;;;5.67;;
25327;SDS011;13279;51.300;12.394;2023-11-21T10:59:17;10.33;;;6.50;;
25327;SDS011;13279;51.300;12.394;2023-11-21T11:01:46;8.77;;;6.07;;
25327;SDS011;13279;51.300;12.394;2023-11-21T11:04:17;9.17;;;5.73;;
25327;SDS011;13279;51.300;12.394;2023-11-21T11:06:48;9.77;;;6.03;;
25327;SDS011;13279;51.300;12.394;2023-11-21T11:09:21;8.67;;;5.70;;
25327;SDS011;13279;51.300;12.394;2023-11-21T11:11:49;11.73;;;6.53;;
25327;SDS011;13279;51.300;12.394;2023-11-21T11:14:18;10.00;;;5.93;;
25327;SDS011;13279;51.300;12.394;2023-11-21T11:16:52;9.57;;;6.10;;
25327;SDS011;13279;51.300;12.394;2023-11-21T11:19:22;13.80;;;6.77;;
25327;SDS011;13279;51.300;12.394;2023-11-21T11:21:53;12.20;;;7.57;;
25327;SDS011;13279;51.300;12.394;2023-11-21T11:24:36;11.70;;;6.83;;
25327;SDS011;13279;51.300;12.394;2023-11-21T11:27:16;13.47;;;7.43;;
25327;SDS011;13279;51.300;12.394;2023-11-21T11:29:54;16.37;;;7.83;;
25327;SDS011;13279;51.300;12.394;2023-11-21T11:32:34;13.97;;;7.97;;
25327;SDS011;13279;51.300;12.394;2023-11-21T11:35:11;12.47;;;6.73;;
25327;SDS011;13279;51.300;12.394;2023-11-21T11:37:48;15.83;;;7.03;;
25327;SDS011;13279;51.300;12.394;2023-11-21T11:40:15;13.63;;;6.97;;
25327;SDS011;13279;51.300;12.394;2023-11-21T11:42:55;12.57;;;6.73;;
25327;SDS011;13279;51.300;12.394;2023-11-21T11:45:25;13.30;;;6.70;;
25327;SDS011;13279;51.300;12.394;2023-11-21T11:47:59;12.67;;;6.43;;
25327;SDS011;13279;51.300;12.394;2023-11-21T11:50:27;14.70;;;7.10;;
25327;SDS011;13279;51.300;12.394;2023-11-21T11:53:11;16.93;;;8.27;;
25327;SDS011;13279;51.300;12.394;2023-11-21T11:55:39;24.07;;;11.53;;
25327;SDS011;13279;51.300;12.394;2023-11-21T11:58:07;28.17;;;12.00;;
25327;SDS011;13279;51.300;12.394;2023-11-21T12:00:35;27.77;;;13.70;;
25327;SDS011;13279;51.300;12.394;2023-11-21T12:03:06;26.63;;;13.37;;
25327;SDS011;13279;51.300;12.394;2023-11-21T12:05:35;29.77;;;12.97;;
25327;SDS011;13279;51.300;12.394;2023-11-21T12:08:05;25.67;;;11.93;;
25327;SDS011;13279;51.300;12.394;2023-11-21T12:10:34;25.70;;;12.50;;
25327;SDS011;13279;51.300;12.394;2023-11-21T12:13:03;30.63;;;12.60;;
25327;SDS011;13279;51.300;12.394;2023-11-21T12:15:33;28.97;;;11.93;;
25327;SDS011;13279;51.300;12.394;2023-11-21T12:18:00;26.17;;;11.33;;
25327;SDS011;13279;51.300;12.394;2023-11-21T12:20:30;24.73;;;11.53;;
25327;SDS011;13279;51.300;12.394;2023-11-21T12:23:05;19.73;;;9.57;;
25327;SDS011;13279;51.300;12.394;2023-11-21T12:25:34;21.13;;;8.40;;
25327;SDS011;13279;51.300;12.394;2023-11-21T12:28:02;15.30;;;7.40;;
25327;SDS011;13279;51.300;12.394;2023-11-21T12:30:31;15.17;;;7.80;;
25327;SDS011;13279;51.300;12.394;2023-11-21T12:33:01;14.97;;;7.30;;
25327;SDS011;13279;51.300;12.394;2023-11-21T12:35:30;14.30;;;7.10;;
25327;SDS011;13279;51.300;12.394;2023-11-21T12:37:59;13.30;;;6.83;;
25327;SDS011;13279;51.300;12.394;2023-11-21T12:40:29;10.67;;;5.47;;
25327;SDS011;13279;51.300;12.394;2023-11-21T12:42:58;12.83;;;6.30;;
25327;SDS011;13279;51.300;12.394;2023-11-21T12:45:26;11.13;;;5.57;;
25327;SDS011;13279;51.300;12.394;2023-11-21T12:47:57;11.67;;;6.23;;
25327;SDS011;13279;51.300;12.394;2023-11-21T12:50:29;8.90;;;5.10;;
25327;SDS011;13279;51.300;12.394;2023-11-21T12:53:00;10.10;;;5.90;;
25327;SDS011;13279;51.300;12.394;2023-11-21T12:55:32;12.17;;;6.00;;
25327;SDS011;13279;51.300;12.394;2023-11-21T12:58:03;12.33;;;6.60;;
25327;SDS011;13279;51.300;12.394;2023-11-21T13:00:38;14.40;;;8.07;;
25327;SDS011;13279;51.300;12.394;2023-11-21T13:03:10;20.60;;;9.10;;
25327;SDS011;13279;51.300;12.394;2023-11-21T13:05:43;20.77;;;9.90;;
25327;SDS011;13279;51.300;12.394;2023-11-21T13:08:11;19.93;;;9.90;;
25327;SDS011;13279;51.300;12.394;2023-11-21T13:10:41;19.20;;;9.90;;
25327;SDS011;13279;51.300;12.394;2023-11-21T13:13:13;21.50;;;11.60;;
25327;SDS011;13279;51.300;12.394;2023-11-21T13:15:47;22.03;;;10.60;;
25327;SDS011;13279;51.300;12.394;2023-11-21T13:18:16;22.53;;;10.53;;
25327;SDS011;13279;51.300;12.394;2023-11-21T13:20:43;20.30;;;10.47;;
25327;SDS011;13279;51.300;12.394;2023-11-21T13:23:11;23.77;;;10.27;;
25327;SDS011;13279;51.300;12.394;2023-11-21T13:25:42;27.30;;;11.23;;
25327;SDS011;13279;51.300;12.394;2023-11-21T13:28:11;23.73;;;10.70;;
25327;SDS011;13279;51.300;12.394;2023-11-21T13:30:41;18.57;;;10.33;;
25327;SDS011;13279;51.300;12.394;2023-11-21T13:33:09;20.03;;;10.90;;
25327;SDS011;13279;51.300;12.394;2023-11-21T13:35:44;21.53;;;11.33;;
25327;SDS011;13279;51.300;12.394;2023-11-21T13:38:17;19.73;;;10.63;;
25327;SDS011;13279;51.300;12.394;2023-11-21T13:40:50;20.97;;;9.90;;
25327;SDS011;13279;51.300;12.394;2023-11-21T13:43:24;18.30;;;10.30;;
25327;SDS011;13279;51.300;12.394;2023-11-21T13:45:54;19.30;;;10.07;;
25327;SDS011;13279;51.300;12.394;2023-11-21T13:48:29;23.67;;;11.33;;
25327;SDS011;13279;51.300;12.394;2023-11-21T13:51:07;17.47;;;9.73;;
25327;SDS011;13279;51.300;12.394;2023-11-21T13:53:41;21.63;;;9.40;;
25327;SDS011;13279;51.300;12.394;2023-11-21T13:56:11;15.57;;;8.10;;
25327;SDS011;13279;51.300;12.394;2023-11-21T13:58:42;18.33;;;8.10;;
25327;SDS011;13279;51.300;12.394;2023-11-21T14:01:13;16.93;;;8.23;;
25327;SDS011;13279;51.300;12.394;2023-11-21T14:04:02;14.63;;;7.93;;
25327;SDS011;13279;51.300;12.394;2023-11-21T14:06:45;16.50;;;7.70;;
25327;SDS011;13279;51.300;12.394;2023-11-21T14:09:17;14.50;;;7.53;;
25327;SDS011;13279;51.300;12.394;2023-11-21T14:12:00;12.93;;;7.47;;
25327;SDS011;13279;51.300;12.394;2023-11-21T14:14:32;17.27;;;7.97;;
25327;SDS011;13279;51.300;12.394;2023-11-21T14:16:59;11.97;;;7.40;;
25327;SDS011;13279;51.300;12.394;2023-11-21T14:19:32;12.53;;;6.70;;
25327;SDS011;13279;51.300;12.394;2023-11-21T14:22:02;11.33;;;7.57;;
25327;SDS011;13279;51.300;12.394;2023-11-21T14:24:29;12.40;;;6.00;;
25327;SDS011;13279;51.300;12.394;2023-11-21T14:26:58;8.93;;;5.87;;
25327;SDS011;13279;51.300;12.394;2023-11-21T14:29:26;11.27;;;5.87;;
25327;SDS011;13279;51.300;12.394;2023-11-21T14:31:55;9.70;;;5.60;;
25327;SDS011;13279;51.300;12.394;2023-11-21T14:34:23;8.03;;;5.40;;